sensor_id;sensor_type;location;lat;lon;timestamp;P1;durP1;ratioP1;P2;durP2;ratioP2
43580;SDS011;29175;51.030;4.606;2023-02-05T00:00:14;70.38;;;27.00;;
43580;SDS011;29175;51.030;4.606;2023-02-05T00:02:42;65.28;;;25.45;;
43580;SDS011;29175;51.030;4.606;2023-02-05T00:05:08;65.43;;;26.05;;
43580;SDS011;29175;51.030;4.606;2023-02-05T00:07:33;60.75;;;24.83;;
43580;SDS011;29175;51.030;4.606;2023-02-05T00:09:59;61.47;;;25.40;;
43580;SDS011;29175;51.030;4.606;2023-02-05T00:12:26;71.35;;;27.23;;
43580;SDS011;29175;51.030;4.606;2023-02-05T00:14:52;56.40;;;26.35;;
43580;SDS011;29175;51.030;4.606;2023-02-05T00:17:18;64.50;;;26.55;;
43580;SDS011;29175;51.030;4.606;2023-02-05T00:19:43;68.53;;;27.42;;
43580;SDS011;29175;51.030;4.606;2023-02-05T00:22:10;63.53;;;26.23;;
43580;SDS011;29175;51.030;4.606;2023-02-05T00:24:36;68.57;;;28.50;;
43580;SDS011;29175;51.030;4.606;2023-02-05T00:27:01;61.67;;;25.67;;
43580;SDS011;29175;51.030;4.606;2023-02-05T00:29:27;77.18;;;28.23;;
43580;SDS011;29175;51.030;4.606;2023-02-05T00:31:54;65.63;;;26.95;;
43580;SDS011;29175;51.030;4.606;2023-02-05T00:34:20;68.60;;;26.80;;
43580;SDS011;29175;51.030;4.606;2023-02-05T00:36:46;77.60;;;27.38;;
43580;SDS011;29175;51.030;4.606;2023-02-05T00:39:11;78.05;;;27.73;;
43580;SDS011;29175;51.030;4.606;2023-02-05T00:41:39;69.90;;;27.23;;
43580;SDS011;29175;51.030;4.606;2023-02-05T00:44:05;79.25;;;29.23;;
43580;SDS011;29175;51.030;4.606;2023-02-05T00:46:31;82.45;;;30.77;;
43580;SDS011;29175;51.030;4.606;2023-02-05T00:48:57;75.97;;;29.90;;
43580;SDS011;29175;51.030;4.606;2023-02-05T00:51:23;87.47;;;31.38;;
43580;SDS011;29175;51.030;4.606;2023-02-05T00:53:49;80.97;;;30.38;;
43580;SDS011;29175;51.030;4.606;2023-02-05T00:56:14;76.63;;;30.67;;
43580;SDS011;29175;51.030;4.606;2023-02-05T00:58:40;70.85;;;30.02;;
43580;SDS011;29175;51.030;4.606;2023-02-05T01:01:11;76.25;;;29.48;;
43580;SDS011;29175;51.030;4.606;2023-02-05T01:03:39;75.07;;;31.27;;
43580;SDS011;29175;51.030;4.606;2023-02-05T01:06:06;82.20;;;32.75;;
43580;SDS011;29175;51.030;4.606;2023-02-05T01:08:33;87.28;;;32.67;;
43580;SDS011;29175;51.030;4.606;2023-02-05T01:10:59;80.70;;;32.40;;
43580;SDS011;29175;51.030;4.606;2023-02-05T01:13:25;79.32;;;30.58;;
43580;SDS011;29175;51.030;4.606;2023-02-05T01:15:51;90.82;;;31.33;;
43580;SDS011;29175;51.030;4.606;2023-02-05T01:18:18;81.82;;;31.30;;
43580;SDS011;29175;51.030;4.606;2023-02-05T01:20:45;79.45;;;31.02;;
43580;SDS011;29175;51.030;4.606;2023-02-05T01:23:10;84.47;;;33.05;;
43580;SDS011;29175;51.030;4.606;2023-02-05T01:25:36;85.10;;;32.75;;
43580;SDS011;29175;51.030;4.606;2023-02-05T01:28:02;83.78;;;33.03;;
43580;SDS011;29175;51.030;4.606;2023-02-05T01:30:28;87.07;;;31.80;;
43580;SDS011;29175;51.030;4.606;2023-02-05T01:32:54;90.85;;;33.20;;
43580;SDS011;29175;51.030;4.606;2023-02-05T01:35:20;92.10;;;33.20;;
43580;SDS011;29175;51.030;4.606;2023-02-05T01:37:46;90.68;;;33.53;;
43580;SDS011;29175;51.030;4.606;2023-02-05T01:40:15;85.72;;;34.17;;
43580;SDS011;29175;51.030;4.606;2023-02-05T01:42:42;86.63;;;31.45;;
43580;SDS011;29175;51.030;4.606;2023-02-05T01:47:56;76.75;;;30.00;;
43580;SDS011;29175;51.030;4.606;2023-02-05T01:52:50;76.53;;;30.42;;
43580;SDS011;29175;51.030;4.606;2023-02-05T01:55:17;69.15;;;29.20;;
43580;SDS011;29175;51.030;4.606;2023-02-05T01:57:45;67.38;;;27.38;;
43580;SDS011;29175;51.030;4.606;2023-02-05T02:00:12;64.00;;;26.45;;
43580;SDS011;29175;51.030;4.606;2023-02-05T02:02:38;82.65;;;29.63;;
43580;SDS011;29175;51.030;4.606;2023-02-05T02:05:09;101.95;;;32.78;;
43580;SDS011;29175;51.030;4.606;2023-02-05T02:07:36;70.88;;;29.35;;
43580;SDS011;29175;51.030;4.606;2023-02-05T02:10:02;73.68;;;27.92;;
43580;SDS011;29175;51.030;4.606;2023-02-05T02:12:31;67.95;;;27.70;;
43580;SDS011;29175;51.030;4.606;2023-02-05T02:15:00;79.20;;;28.73;;
43580;SDS011;29175;51.030;4.606;2023-02-05T02:17:30;68.43;;;28.10;;
43580;SDS011;29175;51.030;4.606;2023-02-05T02:20:04;73.00;;;26.83;;
43580;SDS011;29175;51.030;4.606;2023-02-05T02:28:27;60.92;;;22.98;;
43580;SDS011;29175;51.030;4.606;2023-02-05T02:34:04;58.00;;;23.15;;
43580;SDS011;29175;51.030;4.606;2023-02-05T02:36:41;64.40;;;23.70;;
43580;SDS011;29175;51.030;4.606;2023-02-05T02:39:12;58.60;;;23.15;;
43580;SDS011;29175;51.030;4.606;2023-02-05T02:41:51;67.75;;;25.35;;
43580;SDS011;29175;51.030;4.606;2023-02-05T02:44:25;56.20;;;20.75;;
43580;SDS011;29175;51.030;4.606;2023-02-05T02:47:05;53.03;;;21.23;;
43580;SDS011;29175;51.030;4.606;2023-02-05T02:49:38;50.42;;;18.65;;
43580;SDS011;29175;51.030;4.606;2023-02-05T02:52:08;46.33;;;18.92;;
43580;SDS011;29175;51.030;4.606;2023-02-05T02:54:38;58.47;;;19.37;;
43580;SDS011;29175;51.030;4.606;2023-02-05T02:57:06;44.17;;;16.05;;
43580;SDS011;29175;51.030;4.606;2023-02-05T02:59:34;41.08;;;16.92;;
43580;SDS011;29175;51.030;4.606;2023-02-05T03:02:03;44.77;;;16.37;;
43580;SDS011;29175;51.030;4.606;2023-02-05T03:04:36;47.58;;;15.85;;
43580;SDS011;29175;51.030;4.606;2023-02-05T03:07:10;39.45;;;17.00;;
43580;SDS011;29175;51.030;4.606;2023-02-05T03:10:07;39.80;;;15.82;;
43580;SDS011;29175;51.030;4.606;2023-02-05T03:12:56;36.92;;;16.48;;
43580;SDS011;29175;51.030;4.606;2023-02-05T03:15:22;39.17;;;15.07;;
43580;SDS011;29175;51.030;4.606;2023-02-05T03:17:48;37.03;;;15.68;;
43580;SDS011;29175;51.030;4.606;2023-02-05T03:20:27;35.70;;;13.40;;
43580;SDS011;29175;51.030;4.606;2023-02-05T03:22:56;40.42;;;15.25;;
43580;SDS011;29175;51.030;4.606;2023-02-05T03:25:22;31.98;;;12.57;;
43580;SDS011;29175;51.030;4.606;2023-02-05T03:27:52;34.00;;;12.27;;
43580;SDS011;29175;51.030;4.606;2023-02-05T03:30:18;29.15;;;12.00;;
43580;SDS011;29175;51.030;4.606;2023-02-05T03:46:09;27.90;;;11.05;;
43580;SDS011;29175;51.030;4.606;2023-02-05T03:49:00;27.05;;;10.88;;
43580;SDS011;29175;51.030;4.606;2023-02-05T03:57:09;23.38;;;10.18;;
43580;SDS011;29175;51.030;4.606;2023-02-05T04:02:11;22.67;;;9.77;;
43580;SDS011;29175;51.030;4.606;2023-02-05T04:04:37;22.65;;;9.15;;
43580;SDS011;29175;51.030;4.606;2023-02-05T04:07:03;20.02;;;9.15;;
43580;SDS011;29175;51.030;4.606;2023-02-05T04:09:29;27.48;;;8.95;;
43580;SDS011;29175;51.030;4.606;2023-02-05T04:11:55;17.00;;;8.48;;
43580;SDS011;29175;51.030;4.606;2023-02-05T04:14:20;21.60;;;9.77;;
43580;SDS011;29175;51.030;4.606;2023-02-05T04:16:46;21.58;;;8.88;;
43580;SDS011;29175;51.030;4.606;2023-02-05T04:19:12;26.65;;;9.68;;
43580;SDS011;29175;51.030;4.606;2023-02-05T04:21:38;20.83;;;9.13;;
43580;SDS011;29175;51.030;4.606;2023-02-05T04:24:03;18.27;;;8.27;;
43580;SDS011;29175;51.030;4.606;2023-02-05T04:26:30;19.35;;;8.23;;
43580;SDS011;29175;51.030;4.606;2023-02-05T04:28:56;19.40;;;7.55;;
43580;SDS011;29175;51.030;4.606;2023-02-05T04:31:22;17.45;;;7.55;;
43580;SDS011;29175;51.030;4.606;2023-02-05T04:33:47;16.98;;;7.75;;
43580;SDS011;29175;51.030;4.606;2023-02-05T04:36:13;19.90;;;8.40;;
43580;SDS011;29175;51.030;4.606;2023-02-05T04:38:39;20.75;;;7.68;;
43580;SDS011;29175;51.030;4.606;2023-02-05T04:41:05;31.30;;;9.23;;
43580;SDS011;29175;51.030;4.606;2023-02-05T04:43:32;24.52;;;8.73;;
43580;SDS011;29175;51.030;4.606;2023-02-05T04:45:57;18.63;;;7.68;;
43580;SDS011;29175;51.030;4.606;2023-02-05T04:48:32;22.33;;;8.23;;
43580;SDS011;29175;51.030;4.606;2023-02-05T04:50:59;35.15;;;9.57;;
43580;SDS011;29175;51.030;4.606;2023-02-05T04:53:29;27.58;;;9.35;;
43580;SDS011;29175;51.030;4.606;2023-02-05T04:56:02;20.75;;;9.10;;
43580;SDS011;29175;51.030;4.606;2023-02-05T04:58:31;25.02;;;9.55;;
43580;SDS011;29175;51.030;4.606;2023-02-05T05:00:57;23.85;;;10.07;;
43580;SDS011;29175;51.030;4.606;2023-02-05T05:03:23;26.50;;;10.68;;
43580;SDS011;29175;51.030;4.606;2023-02-05T05:05:48;25.20;;;10.43;;
43580;SDS011;29175;51.030;4.606;2023-02-05T05:08:14;26.55;;;10.85;;
43580;SDS011;29175;51.030;4.606;2023-02-05T05:10:40;26.42;;;11.05;;
43580;SDS011;29175;51.030;4.606;2023-02-05T05:13:05;32.55;;;11.65;;
43580;SDS011;29175;51.030;4.606;2023-02-05T05:15:31;33.38;;;12.48;;
43580;SDS011;29175;51.030;4.606;2023-02-05T05:17:57;36.80;;;12.77;;
43580;SDS011;29175;51.030;4.606;2023-02-05T05:20:23;35.58;;;12.75;;
43580;SDS011;29175;51.030;4.606;2023-02-05T05:22:49;35.75;;;13.27;;
43580;SDS011;29175;51.030;4.606;2023-02-05T05:25:14;40.70;;;15.43;;
43580;SDS011;29175;51.030;4.606;2023-02-05T05:27:40;46.92;;;14.88;;
43580;SDS011;29175;51.030;4.606;2023-02-05T05:30:06;39.00;;;15.32;;
43580;SDS011;29175;51.030;4.606;2023-02-05T05:32:32;39.80;;;13.65;;
43580;SDS011;29175;51.030;4.606;2023-02-05T05:34:58;43.88;;;16.13;;
43580;SDS011;29175;51.030;4.606;2023-02-05T05:37:24;38.20;;;15.23;;
43580;SDS011;29175;51.030;4.606;2023-02-05T05:39:50;49.35;;;16.92;;
43580;SDS011;29175;51.030;4.606;2023-02-05T05:42:34;58.08;;;17.05;;
43580;SDS011;29175;51.030;4.606;2023-02-05T05:45:20;54.53;;;17.77;;
43580;SDS011;29175;51.030;4.606;2023-02-05T05:47:46;50.13;;;17.00;;
43580;SDS011;29175;51.030;4.606;2023-02-05T05:50:13;47.65;;;18.50;;
43580;SDS011;29175;51.030;4.606;2023-02-05T05:52:39;46.53;;;17.77;;
43580;SDS011;29175;51.030;4.606;2023-02-05T05:55:08;46.05;;;18.15;;
43580;SDS011;29175;51.030;4.606;2023-02-05T05:57:35;52.25;;;18.90;;
43580;SDS011;29175;51.030;4.606;2023-02-05T06:00:01;56.28;;;19.20;;
43580;SDS011;29175;51.030;4.606;2023-02-05T06:02:27;58.78;;;20.83;;
43580;SDS011;29175;51.030;4.606;2023-02-05T06:04:56;64.05;;;23.58;;
43580;SDS011;29175;51.030;4.606;2023-02-05T06:07:22;67.68;;;24.05;;
43580;SDS011;29175;51.030;4.606;2023-02-05T06:09:49;68.57;;;24.00;;
43580;SDS011;29175;51.030;4.606;2023-02-05T06:12:15;67.60;;;24.40;;
43580;SDS011;29175;51.030;4.606;2023-02-05T06:14:41;65.22;;;24.15;;
43580;SDS011;29175;51.030;4.606;2023-02-05T06:17:07;67.22;;;26.48;;
43580;SDS011;29175;51.030;4.606;2023-02-05T06:19:36;68.90;;;24.13;;
43580;SDS011;29175;51.030;4.606;2023-02-05T06:22:02;63.92;;;24.13;;
43580;SDS011;29175;51.030;4.606;2023-02-05T06:24:28;62.72;;;24.08;;
43580;SDS011;29175;51.030;4.606;2023-02-05T06:26:53;62.70;;;25.17;;
43580;SDS011;29175;51.030;4.606;2023-02-05T06:29:19;65.07;;;23.35;;
43580;SDS011;29175;51.030;4.606;2023-02-05T06:31:47;72.40;;;24.55;;
43580;SDS011;29175;51.030;4.606;2023-02-05T06:34:13;55.72;;;21.83;;
43580;SDS011;29175;51.030;4.606;2023-02-05T06:36:39;59.15;;;22.45;;
43580;SDS011;29175;51.030;4.606;2023-02-05T06:39:05;52.45;;;20.38;;
43580;SDS011;29175;51.030;4.606;2023-02-05T06:41:31;45.03;;;19.75;;
43580;SDS011;29175;51.030;4.606;2023-02-05T06:43:57;47.38;;;17.85;;
43580;SDS011;29175;51.030;4.606;2023-02-05T06:46:23;26.27;;;11.40;;
43580;SDS011;29175;51.030;4.606;2023-02-05T06:48:48;20.08;;;8.07;;
43580;SDS011;29175;51.030;4.606;2023-02-05T06:51:14;18.52;;;7.43;;
43580;SDS011;29175;51.030;4.606;2023-02-05T06:53:40;20.52;;;6.40;;
43580;SDS011;29175;51.030;4.606;2023-02-05T06:56:06;17.20;;;5.88;;
43580;SDS011;29175;51.030;4.606;2023-02-05T06:58:32;17.08;;;5.82;;
43580;SDS011;29175;51.030;4.606;2023-02-05T07:00:58;14.68;;;6.05;;
43580;SDS011;29175;51.030;4.606;2023-02-05T07:03:25;17.50;;;5.18;;
43580;SDS011;29175;51.030;4.606;2023-02-05T07:05:50;15.50;;;4.93;;
43580;SDS011;29175;51.030;4.606;2023-02-05T07:08:16;14.63;;;4.32;;
43580;SDS011;29175;51.030;4.606;2023-02-05T07:10:42;17.23;;;3.85;;
43580;SDS011;29175;51.030;4.606;2023-02-05T07:13:08;16.33;;;4.10;;
43580;SDS011;29175;51.030;4.606;2023-02-05T07:15:34;13.48;;;3.13;;
43580;SDS011;29175;51.030;4.606;2023-02-05T07:18:01;13.05;;;3.25;;
43580;SDS011;29175;51.030;4.606;2023-02-05T07:20:29;12.57;;;3.60;;
43580;SDS011;29175;51.030;4.606;2023-02-05T07:22:55;13.18;;;2.53;;
43580;SDS011;29175;51.030;4.606;2023-02-05T07:25:21;10.65;;;3.17;;
43580;SDS011;29175;51.030;4.606;2023-02-05T07:27:47;10.32;;;3.63;;
43580;SDS011;29175;51.030;4.606;2023-02-05T07:30:12;8.88;;;2.67;;
43580;SDS011;29175;51.030;4.606;2023-02-05T07:32:39;17.52;;;3.33;;
43580;SDS011;29175;51.030;4.606;2023-02-05T07:35:04;8.77;;;2.42;;
43580;SDS011;29175;51.030;4.606;2023-02-05T07:37:30;13.48;;;2.75;;
43580;SDS011;29175;51.030;4.606;2023-02-05T07:39:57;5.75;;;2.58;;
43580;SDS011;29175;51.030;4.606;2023-02-05T07:42:23;15.82;;;2.70;;
43580;SDS011;29175;51.030;4.606;2023-02-05T07:44:48;9.50;;;2.63;;
43580;SDS011;29175;51.030;4.606;2023-02-05T07:47:14;18.75;;;2.95;;
43580;SDS011;29175;51.030;4.606;2023-02-05T07:49:40;4.90;;;2.38;;
43580;SDS011;29175;51.030;4.606;2023-02-05T07:52:06;9.45;;;2.42;;
43580;SDS011;29175;51.030;4.606;2023-02-05T07:54:32;8.75;;;2.92;;
43580;SDS011;29175;51.030;4.606;2023-02-05T07:56:58;9.13;;;2.50;;
43580;SDS011;29175;51.030;4.606;2023-02-05T07:59:25;17.33;;;3.05;;
43580;SDS011;29175;51.030;4.606;2023-02-05T08:01:51;10.35;;;2.80;;
43580;SDS011;29175;51.030;4.606;2023-02-05T08:04:17;14.80;;;2.97;;
43580;SDS011;29175;51.030;4.606;2023-02-05T08:06:43;16.85;;;2.95;;
43580;SDS011;29175;51.030;4.606;2023-02-05T08:09:09;11.93;;;2.35;;
43580;SDS011;29175;51.030;4.606;2023-02-05T08:11:35;15.75;;;3.35;;
43580;SDS011;29175;51.030;4.606;2023-02-05T08:14:01;26.90;;;3.90;;
43580;SDS011;29175;51.030;4.606;2023-02-05T08:16:27;23.88;;;3.33;;
43580;SDS011;29175;51.030;4.606;2023-02-05T08:18:53;12.25;;;3.13;;
43580;SDS011;29175;51.030;4.606;2023-02-05T08:21:18;18.20;;;3.28;;
43580;SDS011;29175;51.030;4.606;2023-02-05T08:23:46;13.13;;;3.15;;
43580;SDS011;29175;51.030;4.606;2023-02-05T08:26:12;6.38;;;2.38;;
43580;SDS011;29175;51.030;4.606;2023-02-05T08:28:40;13.98;;;2.53;;
43580;SDS011;29175;51.030;4.606;2023-02-05T08:31:12;22.80;;;4.03;;
43580;SDS011;29175;51.030;4.606;2023-02-05T08:33:39;12.57;;;3.60;;
43580;SDS011;29175;51.030;4.606;2023-02-05T08:36:05;14.52;;;3.10;;
43580;SDS011;29175;51.030;4.606;2023-02-05T08:38:32;14.57;;;3.45;;
43580;SDS011;29175;51.030;4.606;2023-02-05T08:40:58;15.13;;;3.38;;
43580;SDS011;29175;51.030;4.606;2023-02-05T08:43:27;27.20;;;5.05;;
43580;SDS011;29175;51.030;4.606;2023-02-05T08:45:53;16.73;;;3.40;;
43580;SDS011;29175;51.030;4.606;2023-02-05T08:48:19;12.98;;;3.50;;
43580;SDS011;29175;51.030;4.606;2023-02-05T08:50:45;19.55;;;3.80;;
43580;SDS011;29175;51.030;4.606;2023-02-05T08:53:11;13.80;;;3.30;;
43580;SDS011;29175;51.030;4.606;2023-02-05T08:55:37;23.02;;;4.25;;
43580;SDS011;29175;51.030;4.606;2023-02-05T08:58:03;14.98;;;3.70;;
43580;SDS011;29175;51.030;4.606;2023-02-05T09:00:29;16.20;;;3.95;;
43580;SDS011;29175;51.030;4.606;2023-02-05T09:02:57;17.42;;;3.85;;
43580;SDS011;29175;51.030;4.606;2023-02-05T09:05:23;16.58;;;3.95;;
43580;SDS011;29175;51.030;4.606;2023-02-05T09:07:49;21.90;;;4.70;;
43580;SDS011;29175;51.030;4.606;2023-02-05T09:10:14;19.33;;;4.07;;
43580;SDS011;29175;51.030;4.606;2023-02-05T09:12:40;17.98;;;4.38;;
43580;SDS011;29175;51.030;4.606;2023-02-05T09:15:06;20.10;;;4.75;;
43580;SDS011;29175;51.030;4.606;2023-02-05T09:17:33;15.32;;;4.15;;
43580;SDS011;29175;51.030;4.606;2023-02-05T09:19:59;24.48;;;4.88;;
43580;SDS011;29175;51.030;4.606;2023-02-05T09:22:25;21.00;;;4.65;;
43580;SDS011;29175;51.030;4.606;2023-02-05T09:24:51;19.48;;;4.18;;
43580;SDS011;29175;51.030;4.606;2023-02-05T09:27:17;12.57;;;3.22;;
43580;SDS011;29175;51.030;4.606;2023-02-05T09:29:42;12.90;;;3.22;;
43580;SDS011;29175;51.030;4.606;2023-02-05T09:32:08;18.00;;;4.45;;
43580;SDS011;29175;51.030;4.606;2023-02-05T09:34:34;15.95;;;4.03;;
43580;SDS011;29175;51.030;4.606;2023-02-05T09:37:00;14.30;;;3.53;;
43580;SDS011;29175;51.030;4.606;2023-02-05T09:39:26;15.20;;;4.28;;
43580;SDS011;29175;51.030;4.606;2023-02-05T09:42:07;18.63;;;4.15;;
43580;SDS011;29175;51.030;4.606;2023-02-05T09:47:51;21.13;;;4.57;;
43580;SDS011;29175;51.030;4.606;2023-02-05T09:50:20;30.48;;;5.30;;
43580;SDS011;29175;51.030;4.606;2023-02-05T09:52:52;18.75;;;5.15;;
43580;SDS011;29175;51.030;4.606;2023-02-05T09:55:34;28.52;;;5.35;;
43580;SDS011;29175;51.030;4.606;2023-02-05T09:58:06;27.52;;;5.25;;
43580;SDS011;29175;51.030;4.606;2023-02-05T10:00:45;23.50;;;5.60;;
43580;SDS011;29175;51.030;4.606;2023-02-05T10:11:25;35.42;;;7.22;;
43580;SDS011;29175;51.030;4.606;2023-02-05T10:14:12;25.42;;;6.00;;
43580;SDS011;29175;51.030;4.606;2023-02-05T10:22:25;34.88;;;6.35;;
43580;SDS011;29175;51.030;4.606;2023-02-05T10:25:11;30.55;;;6.55;;
43580;SDS011;29175;51.030;4.606;2023-02-05T10:30:54;26.38;;;6.47;;
43580;SDS011;29175;51.030;4.606;2023-02-05T10:33:47;22.92;;;5.60;;
43580;SDS011;29175;51.030;4.606;2023-02-05T10:36:20;25.42;;;5.97;;
43580;SDS011;29175;51.030;4.606;2023-02-05T10:38:47;22.95;;;5.72;;
43580;SDS011;29175;51.030;4.606;2023-02-05T10:41:19;38.33;;;7.30;;
43580;SDS011;29175;51.030;4.606;2023-02-05T10:43:55;25.90;;;6.35;;
43580;SDS011;29175;51.030;4.606;2023-02-05T10:46:42;25.90;;;6.30;;
43580;SDS011;29175;51.030;4.606;2023-02-05T10:52:22;26.58;;;6.07;;
43580;SDS011;29175;51.030;4.606;2023-02-05T10:54:48;34.10;;;6.07;;
43580;SDS011;29175;51.030;4.606;2023-02-05T10:57:19;27.77;;;5.88;;
43580;SDS011;29175;51.030;4.606;2023-02-05T10:59:51;26.35;;;5.85;;
43580;SDS011;29175;51.030;4.606;2023-02-05T11:02:20;33.35;;;6.22;;
43580;SDS011;29175;51.030;4.606;2023-02-05T11:07:32;40.88;;;6.75;;
43580;SDS011;29175;51.030;4.606;2023-02-05T11:10:22;29.67;;;5.80;;
43580;SDS011;29175;51.030;4.606;2023-02-05T11:12:54;30.00;;;5.93;;
43580;SDS011;29175;51.030;4.606;2023-02-05T11:15:24;21.63;;;5.72;;
43580;SDS011;29175;51.030;4.606;2023-02-05T11:17:53;43.67;;;7.07;;
43580;SDS011;29175;51.030;4.606;2023-02-05T11:20:33;29.80;;;5.65;;
43580;SDS011;29175;51.030;4.606;2023-02-05T11:23:07;33.17;;;6.85;;
43580;SDS011;29175;51.030;4.606;2023-02-05T11:25:33;20.95;;;5.18;;
43580;SDS011;29175;51.030;4.606;2023-02-05T11:28:02;38.85;;;6.32;;
43580;SDS011;29175;51.030;4.606;2023-02-05T11:32:56;31.92;;;5.00;;
43580;SDS011;29175;51.030;4.606;2023-02-05T11:35:29;32.17;;;6.43;;
43580;SDS011;29175;51.030;4.606;2023-02-05T11:40:39;29.52;;;6.32;;
43580;SDS011;29175;51.030;4.606;2023-02-05T11:43:06;29.67;;;7.30;;
43580;SDS011;29175;51.030;4.606;2023-02-05T11:45:45;27.83;;;5.95;;
43580;SDS011;29175;51.030;4.606;2023-02-05T11:51:11;24.38;;;5.50;;
43580;SDS011;29175;51.030;4.606;2023-02-05T11:53:58;28.92;;;6.22;;
43580;SDS011;29175;51.030;4.606;2023-02-05T11:56:26;30.38;;;6.47;;
43580;SDS011;29175;51.030;4.606;2023-02-05T11:59:02;26.77;;;6.40;;
43580;SDS011;29175;51.030;4.606;2023-02-05T12:01:40;37.78;;;7.35;;
43580;SDS011;29175;51.030;4.606;2023-02-05T12:06:40;31.95;;;6.63;;
43580;SDS011;29175;51.030;4.606;2023-02-05T12:09:15;27.92;;;5.85;;
43580;SDS011;29175;51.030;4.606;2023-02-05T12:14:45;23.27;;;5.75;;
43580;SDS011;29175;51.030;4.606;2023-02-05T12:17:33;22.52;;;5.28;;
43580;SDS011;29175;51.030;4.606;2023-02-05T12:25:35;27.23;;;5.93;;
43580;SDS011;29175;51.030;4.606;2023-02-05T12:31:25;23.83;;;5.00;;
43580;SDS011;29175;51.030;4.606;2023-02-05T12:39:37;23.90;;;4.75;;
43580;SDS011;29175;51.030;4.606;2023-02-05T12:42:32;23.63;;;5.57;;
43580;SDS011;29175;51.030;4.606;2023-02-05T12:52:55;36.75;;;5.68;;
43580;SDS011;29175;51.030;4.606;2023-02-05T12:55:38;28.90;;;6.10;;
43580;SDS011;29175;51.030;4.606;2023-02-05T12:58:13;20.83;;;4.85;;
43580;SDS011;29175;51.030;4.606;2023-02-05T13:00:43;22.42;;;5.60;;
43580;SDS011;29175;51.030;4.606;2023-02-05T13:03:29;20.48;;;5.22;;
43580;SDS011;29175;51.030;4.606;2023-02-05T13:06:04;27.45;;;6.68;;
43580;SDS011;29175;51.030;4.606;2023-02-05T13:08:40;22.70;;;6.15;;
43580;SDS011;29175;51.030;4.606;2023-02-05T13:11:09;34.95;;;6.20;;
43580;SDS011;29175;51.030;4.606;2023-02-05T13:16:30;23.02;;;5.65;;
43580;SDS011;29175;51.030;4.606;2023-02-05T13:21:59;30.27;;;5.78;;
43580;SDS011;29175;51.030;4.606;2023-02-05T13:24:51;18.50;;;5.10;;
43580;SDS011;29175;51.030;4.606;2023-02-05T13:27:44;23.88;;;6.05;;
43580;SDS011;29175;51.030;4.606;2023-02-05T13:30:51;30.23;;;4.47;;
43580;SDS011;29175;51.030;4.606;2023-02-05T13:33:19;36.25;;;6.20;;
43580;SDS011;29175;51.030;4.606;2023-02-05T13:50:14;22.27;;;5.78;;
43580;SDS011;29175;51.030;4.606;2023-02-05T13:53:07;27.30;;;4.95;;
43580;SDS011;29175;51.030;4.606;2023-02-05T13:58:19;20.67;;;5.82;;
43580;SDS011;29175;51.030;4.606;2023-02-05T14:03:59;25.08;;;5.50;;
43580;SDS011;29175;51.030;4.606;2023-02-05T14:06:31;27.80;;;5.15;;
43580;SDS011;29175;51.030;4.606;2023-02-05T14:09:06;28.10;;;7.10;;
43580;SDS011;29175;51.030;4.606;2023-02-05T14:11:58;18.23;;;4.47;;
43580;SDS011;29175;51.030;4.606;2023-02-05T14:14:31;17.60;;;4.60;;
43580;SDS011;29175;51.030;4.606;2023-02-05T14:17:01;22.08;;;4.97;;
43580;SDS011;29175;51.030;4.606;2023-02-05T14:22:33;27.77;;;4.32;;
43580;SDS011;29175;51.030;4.606;2023-02-05T14:29:54;25.92;;;5.18;;
43580;SDS011;29175;51.030;4.606;2023-02-05T14:34:56;26.65;;;5.18;;
43580;SDS011;29175;51.030;4.606;2023-02-05T14:37:45;29.85;;;4.63;;
43580;SDS011;29175;51.030;4.606;2023-02-05T14:40:34;29.20;;;5.00;;
43580;SDS011;29175;51.030;4.606;2023-02-05T14:43:19;24.52;;;5.38;;
43580;SDS011;29175;51.030;4.606;2023-02-05T14:45:51;30.25;;;6.03;;
43580;SDS011;29175;51.030;4.606;2023-02-05T14:48:18;19.35;;;4.68;;
43580;SDS011;29175;51.030;4.606;2023-02-05T14:50:58;22.50;;;5.00;;
43580;SDS011;29175;51.030;4.606;2023-02-05T14:53:26;27.52;;;5.18;;
43580;SDS011;29175;51.030;4.606;2023-02-05T14:55:53;27.42;;;5.32;;
43580;SDS011;29175;51.030;4.606;2023-02-05T14:58:32;23.40;;;5.10;;
43580;SDS011;29175;51.030;4.606;2023-02-05T15:03:54;22.27;;;5.35;;
43580;SDS011;29175;51.030;4.606;2023-02-05T15:06:23;25.55;;;5.35;;
43580;SDS011;29175;51.030;4.606;2023-02-05T15:08:53;16.13;;;4.45;;
43580;SDS011;29175;51.030;4.606;2023-02-05T15:16:44;25.10;;;5.55;;
43580;SDS011;29175;51.030;4.606;2023-02-05T15:19:29;34.17;;;6.50;;
43580;SDS011;29175;51.030;4.606;2023-02-05T15:22:14;26.17;;;7.45;;
43580;SDS011;29175;51.030;4.606;2023-02-05T15:24:47;22.73;;;4.70;;
43580;SDS011;29175;51.030;4.606;2023-02-05T15:27:17;21.85;;;5.05;;
43580;SDS011;29175;51.030;4.606;2023-02-05T15:29:47;22.10;;;4.57;;
43580;SDS011;29175;51.030;4.606;2023-02-05T15:34:55;26.75;;;5.82;;
43580;SDS011;29175;51.030;4.606;2023-02-05T15:37:31;18.42;;;4.03;;
43580;SDS011;29175;51.030;4.606;2023-02-05T15:42:35;23.55;;;4.90;;
43580;SDS011;29175;51.030;4.606;2023-02-05T15:45:23;34.30;;;5.68;;
43580;SDS011;29175;51.030;4.606;2023-02-05T15:48:23;24.20;;;5.68;;
43580;SDS011;29175;51.030;4.606;2023-02-05T15:53:28;18.20;;;6.47;;
43580;SDS011;29175;51.030;4.606;2023-02-05T15:55:56;17.23;;;6.25;;
43580;SDS011;29175;51.030;4.606;2023-02-05T15:58:24;22.02;;;6.05;;
43580;SDS011;29175;51.030;4.606;2023-02-05T16:00:52;20.80;;;4.70;;
43580;SDS011;29175;51.030;4.606;2023-02-05T16:03:30;29.98;;;5.60;;
43580;SDS011;29175;51.030;4.606;2023-02-05T16:05:58;27.73;;;5.53;;
43580;SDS011;29175;51.030;4.606;2023-02-05T16:08:25;17.05;;;5.15;;
43580;SDS011;29175;51.030;4.606;2023-02-05T16:10:56;25.83;;;5.65;;
43580;SDS011;29175;51.030;4.606;2023-02-05T16:13:26;39.33;;;6.53;;
43580;SDS011;29175;51.030;4.606;2023-02-05T16:18:36;28.25;;;5.70;;
43580;SDS011;29175;51.030;4.606;2023-02-05T16:23:51;21.70;;;5.82;;
43580;SDS011;29175;51.030;4.606;2023-02-05T16:26:58;19.05;;;6.03;;
43580;SDS011;29175;51.030;4.606;2023-02-05T16:29:23;34.05;;;6.03;;
43580;SDS011;29175;51.030;4.606;2023-02-05T16:31:57;24.33;;;5.30;;
43580;SDS011;29175;51.030;4.606;2023-02-05T16:34:27;25.60;;;5.25;;
43580;SDS011;29175;51.030;4.606;2023-02-05T16:36:55;23.40;;;5.68;;
43580;SDS011;29175;51.030;4.606;2023-02-05T16:39:29;28.52;;;5.30;;
43580;SDS011;29175;51.030;4.606;2023-02-05T16:42:05;32.25;;;5.82;;
43580;SDS011;29175;51.030;4.606;2023-02-05T16:44:36;25.77;;;5.65;;
43580;SDS011;29175;51.030;4.606;2023-02-05T16:47:16;27.42;;;6.43;;
43580;SDS011;29175;51.030;4.606;2023-02-05T16:49:45;26.60;;;6.00;;
43580;SDS011;29175;51.030;4.606;2023-02-05T16:52:28;40.95;;;5.97;;
43580;SDS011;29175;51.030;4.606;2023-02-05T16:57:51;32.78;;;5.78;;
43580;SDS011;29175;51.030;4.606;2023-02-05T17:00:27;33.53;;;6.47;;
43580;SDS011;29175;51.030;4.606;2023-02-05T17:02:55;22.75;;;6.28;;
43580;SDS011;29175;51.030;4.606;2023-02-05T17:05:27;26.67;;;6.25;;
43580;SDS011;29175;51.030;4.606;2023-02-05T17:07:56;25.58;;;5.25;;
43580;SDS011;29175;51.030;4.606;2023-02-05T17:10:24;26.67;;;5.88;;
43580;SDS011;29175;51.030;4.606;2023-02-05T17:12:59;29.52;;;6.78;;
43580;SDS011;29175;51.030;4.606;2023-02-05T17:15:38;28.58;;;6.85;;
43580;SDS011;29175;51.030;4.606;2023-02-05T17:18:24;27.00;;;6.10;;
43580;SDS011;29175;51.030;4.606;2023-02-05T17:21:40;28.88;;;6.65;;
43580;SDS011;29175;51.030;4.606;2023-02-05T17:23:48;27.17;;;5.97;;
43580;SDS011;29175;51.030;4.606;2023-02-05T17:26:15;32.17;;;6.30;;